Time;durP1;ratioP1;P1;durP2;ratioP2;P2;SDS_P1;SDS_P2;PMS_P1;PMS_P2;Temp;Humidity;BMP_temperature;BMP_pressure;BME280_temperature;BME280_humidity;BME280_pressure;Samples;Min_cycle;Max_cycle;Signal;HPM_P1;HPM_P2
2022/04/25 00:01:53;;;;;;;6.53;3.15;;;26.00;91.00;;;;;;5089746;28;20031;-51
2022/04/25 00:04:19;;;;;;;5.15;3.05;;;25.90;90.90;;;;;;5090039;28;20094;-52
2022/04/25 00:06:46;;;;;;;6.85;3.17;;;25.90;90.90;;;;;;5089917;28;20221;-49
2022/04/25 00:09:12;;;;;;;6.22;2.90;;;25.90;91.10;;;;;;5090017;28;20095;-53
2022/04/25 00:11:39;;;;;;;6.50;3.05;;;25.90;91.10;;;;;;5089591;28;20036;-52
2022/04/25 00:14:07;;;;;;;4.03;2.72;;;25.90;90.90;;;;;;5086456;28;20060;-46
2022/04/25 00:16:34;;;;;;;2.95;2.65;;;25.90;90.90;;;;;;5086448;28;20074;-50
2022/04/25 00:19:01;;;;;;;5.78;3.20;;;25.90;91.10;;;;;;5086301;28;20032;-48
2022/04/25 00:21:27;;;;;;;8.35;2.92;;;25.90;91.30;;;;;;5086280;28;20332;-48
2022/04/25 00:23:54;;;;;;;5.60;3.20;;;25.90;91.30;;;;;;5086693;28;20130;-51
2022/04/25 00:26:20;;;;;;;6.22;3.00;;;25.80;91.40;;;;;;5086148;28;20021;-49
2022/04/25 00:28:47;;;;;;;6.28;3.58;;;25.80;91.50;;;;;;5086211;28;20040;-47
2022/04/25 00:31:13;;;;;;;6.78;3.25;;;25.80;91.40;;;;;;5086261;28;20021;-48
2022/04/25 00:33:40;;;;;;;10.60;4.60;;;25.80;91.50;;;;;;5085977;28;20032;-52
2022/04/25 00:36:07;;;;;;;11.00;4.65;;;25.80;91.40;;;;;;5086103;28;20039;-52
2022/04/25 00:38:33;;;;;;;8.02;3.50;;;25.80;91.20;;;;;;5085961;28;20099;-53
2022/04/25 00:41:01;;;;;;;4.68;3.20;;;25.80;91.20;;;;;;5085992;28;20027;-50
2022/04/25 00:43:28;;;;;;;5.28;2.97;;;25.80;91.20;;;;;;5085801;28;20059;-51
2022/04/25 00:45:55;;;;;;;5.20;2.97;;;25.80;91.20;;;;;;5086118;28;20264;-51
2022/04/25 00:48:22;;;;;;;6.72;3.10;;;25.80;91.20;;;;;;5085948;28;20029;-51
2022/04/25 00:50:48;;;;;;;5.20;3.17;;;25.70;91.10;;;;;;5085878;28;20103;-53
2022/04/25 00:53:15;;;;;;;5.88;2.90;;;25.80;91.10;;;;;;5085930;28;20021;-48
2022/04/25 00:55:42;;;;;;;6.95;3.13;;;25.80;91.20;;;;;;5085913;28;20340;-49
2022/04/25 00:58:11;;;;;;;6.25;3.17;;;25.80;91.10;;;;;;5096062;28;20100;-48
2022/04/25 01:00:38;;;;;;;8.35;3.60;;;25.80;91.10;;;;;;5085948;28;20026;-55
2022/04/25 01:03:06;;;;;;;7.15;3.53;;;25.80;91.10;;;;;;5094848;28;20024;-47
2022/04/25 01:05:33;;;;;;;4.18;3.15;;;25.80;91.10;;;;;;5105768;28;20250;-52
2022/04/25 01:08:00;;;;;;;5.35;3.35;;;25.90;91.10;;;;;;5099514;28;20248;-49
2022/04/25 01:10:26;;;;;;;6.93;3.58;;;25.80;91.10;;;;;;5089630;28;20232;-48
2022/04/25 01:12:53;;;;;;;6.15;3.55;;;25.80;91.10;;;;;;5085214;28;20028;-56
2022/04/25 01:15:19;;;;;;;6.72;3.72;;;25.90;91.00;;;;;;5085719;28;20265;-53
2022/04/25 01:17:47;;;;;;;7.32;3.75;;;25.90;90.90;;;;;;5085178;28;20325;-45
2022/04/25 01:20:15;;;;;;;6.68;3.83;;;25.90;91.10;;;;;;5085718;28;20098;-47
2022/04/25 01:22:49;;;;;;;8.77;3.80;;;25.90;91.20;;;;;;5085248;28;20048;-51
2022/04/25 01:28:03;;;;;;;9.40;4.07;;;25.90;91.40;;;;;;5084829;28;20031;-46
2022/04/25 01:30:32;;;;;;;6.03;3.85;;;25.90;91.10;;;;;;5084945;28;20050;-50
2022/04/25 01:32:59;;;;;;;8.07;4.15;;;25.90;91.20;;;;;;5085025;28;20268;-53
2022/04/25 01:35:26;;;;;;;7.30;4.85;;;25.90;91.20;;;;;;5085459;28;20095;-49
2022/04/25 01:37:54;;;;;;;9.13;5.05;;;25.90;91.20;;;;;;5084882;28;20038;-45
2022/04/25 01:40:21;;;;;;;9.68;5.07;;;25.90;91.20;;;;;;5110347;28;20124;-51
2022/04/25 01:42:48;;;;;;;6.70;5.10;;;25.90;91.20;;;;;;5099841;28;20020;-49
2022/04/25 01:45:14;;;;;;;6.15;4.30;;;25.90;91.20;;;;;;5099824;28;20028;-52
2022/04/25 01:47:41;;;;;;;9.13;5.03;;;25.90;91.20;;;;;;5084832;28;20033;-52
2022/04/25 01:50:08;;;;;;;8.25;4.35;;;25.90;91.20;;;;;;5085044;28;20017;-50
2022/04/25 01:52:35;;;;;;;7.68;4.10;;;25.90;91.20;;;;;;5084608;28;20031;-49
2022/04/25 01:55:03;;;;;;;7.40;4.50;;;25.90;91.20;;;;;;5084951;28;20029;-52
2022/04/25 01:57:30;;;;;;;5.80;4.00;;;25.90;91.10;;;;;;5102318;28;20044;-47
2022/04/25 01:59:57;;;;;;;6.65;4.15;;;25.90;91.10;;;;;;5092448;28;20047;-47
2022/04/25 02:02:23;;;;;;;9.57;4.63;;;25.90;91.00;;;;;;5115095;28;20065;-46
2022/04/25 02:04:50;;;;;;;8.90;4.45;;;25.90;91.10;;;;;;5105906;28;20033;-46
2022/04/25 02:07:18;;;;;;;12.77;4.78;;;25.90;91.20;;;;;;5109414;28;20016;-51
2022/04/25 02:09:44;;;;;;;8.75;5.10;;;25.90;91.20;;;;;;5109526;28;20095;-47
2022/04/25 02:12:11;;;;;;;6.60;4.80;;;25.90;91.20;;;;;;5096879;28;20058;-51
2022/04/25 02:14:41;;;;;;;6.75;5.00;;;25.90;91.20;;;;;;5097989;28;20313;-46
2022/04/25 02:17:08;;;;;;;8.38;4.85;;;25.90;91.10;;;;;;5096161;28;20067;-48
2022/04/25 02:19:38;;;;;;;7.63;5.03;;;25.90;91.20;;;;;;5114326;28;20035;-50
2022/04/25 02:22:06;;;;;;;8.70;5.00;;;25.90;91.20;;;;;;5112937;28;20043;-50
2022/04/25 02:24:34;;;;;;;8.57;4.90;;;25.90;91.20;;;;;;5125135;28;20024;-47
2022/04/25 02:27:03;;;;;;;10.70;4.80;;;25.90;91.30;;;;;;5106597;28;20023;-46
2022/04/25 02:29:34;;;;;;;7.95;4.65;;;25.90;91.30;;;;;;5118050;28;20038;-49
2022/04/25 02:32:02;;;;;;;10.40;4.53;;;25.90;91.40;;;;;;5095187;28;20291;-52
2022/04/25 02:34:31;;;;;;;6.88;4.47;;;25.90;91.40;;;;;;5084251;28;20051;-55
2022/04/25 02:36:58;;;;;;;6.88;4.10;;;25.90;91.40;;;;;;5083351;28;20028;-51
2022/04/25 02:39:26;;;;;;;5.85;4.32;;;25.90;91.40;;;;;;5100274;28;20043;-51
2022/04/25 02:41:52;;;;;;;5.70;4.50;;;25.90;91.50;;;;;;5102864;28;20028;-54
2022/04/25 02:44:20;;;;;;;10.25;4.30;;;25.90;91.60;;;;;;5092456;28;20099;-52
2022/04/25 02:46:46;;;;;;;8.38;4.40;;;25.90;91.60;;;;;;5101712;28;20109;-52
2022/04/25 02:49:13;;;;;;;10.63;4.90;;;25.90;91.60;;;;;;5104230;28;20212;-51
2022/04/25 02:51:39;;;;;;;5.90;4.10;;;25.90;91.80;;;;;;5104114;28;20241;-49
2022/04/25 02:54:06;;;;;;;7.80;4.38;;;25.90;91.80;;;;;;5104007;28;20028;-55
2022/04/25 02:56:32;;;;;;;8.75;4.28;;;25.90;91.70;;;;;;5103503;28;20047;-52
2022/04/25 02:58:59;;;;;;;10.35;4.50;;;25.90;91.60;;;;;;5104049;28;20028;-54
2022/04/25 03:01:26;;;;;;;9.25;4.38;;;25.90;91.70;;;;;;5103831;28;20020;-52
2022/04/25 03:03:53;;;;;;;8.95;3.90;;;25.90;91.60;;;;;;5104123;28;20212;-54
2022/04/25 03:06:19;;;;;;;8.45;4.30;;;25.90;91.60;;;;;;5103741;28;20035;-52
2022/04/25 03:08:46;;;;;;;8.98;3.90;;;25.90;91.60;;;;;;5103992;28;20032;-52
2022/04/25 03:11:14;;;;;;;9.50;4.45;;;25.90;91.60;;;;;;5103293;28;20095;-52
2022/04/25 03:13:41;;;;;;;5.60;4.00;;;25.90;91.50;;;;;;5096497;28;20077;-50
2022/04/25 03:16:07;;;;;;;8.25;4.10;;;25.90;91.60;;;;;;5089474;28;20028;-49
2022/04/25 03:18:34;;;;;;;9.98;4.00;;;25.90;91.70;;;;;;5088320;28;20055;-48
2022/04/25 03:21:02;;;;;;;5.72;4.00;;;25.90;91.70;;;;;;5101783;28;20032;-52
2022/04/25 03:23:28;;;;;;;8.82;3.92;;;25.80;91.80;;;;;;5103651;28;20054;-52
2022/04/25 03:25:56;;;;;;;5.57;3.80;;;25.80;91.80;;;;;;5103441;28;20313;-54
2022/04/25 03:28:23;;;;;;;10.50;4.45;;;25.80;91.80;;;;;;5103600;28;20111;-54
2022/04/25 03:30:50;;;;;;;8.82;4.90;;;25.90;91.90;;;;;;5103943;28;20328;-56
2022/04/25 03:33:19;;;;;;;10.15;4.32;;;25.80;91.80;;;;;;5103595;28;20043;-51
2022/04/25 03:35:47;;;;;;;8.98;4.30;;;25.90;91.80;;;;;;5103588;28;20035;-51
2022/04/25 03:38:16;;;;;;;9.25;4.20;;;25.80;91.70;;;;;;5096895;28;20087;-51
2022/04/25 03:40:43;;;;;;;7.68;4.13;;;25.80;91.80;;;;;;5102334;28;20028;-50
2022/04/25 03:43:10;;;;;;;7.65;4.05;;;25.80;91.90;;;;;;5103413;28;20032;-54
2022/04/25 03:45:37;;;;;;;11.52;4.30;;;25.80;91.90;;;;;;5103732;28;20073;-49
2022/04/25 03:48:04;;;;;;;10.43;4.75;;;25.80;92.00;;;;;;5094207;28;20246;-49
2022/04/25 03:50:31;;;;;;;8.77;3.88;;;25.80;92.10;;;;;;5102360;28;20087;-50
2022/04/25 03:53:04;;;;;;;7.03;4.10;;;25.80;92.10;;;;;;5119546;28;20030;-59
2022/04/25 03:58:15;;;;;;;6.95;4.15;;;25.80;92.20;;;;;;5099956;28;20077;-54
2022/04/25 04:00:42;;;;;;;5.88;3.83;;;25.90;91.90;;;;;;5107309;28;20016;-57
2022/04/25 04:03:10;;;;;;;8.25;4.05;;;25.80;92.00;;;;;;5107300;28;20313;-53
2022/04/25 04:05:37;;;;;;;7.43;4.45;;;25.80;92.00;;;;;;5106964;28;20028;-49
2022/04/25 04:08:04;;;;;;;5.95;3.92;;;25.80;92.10;;;;;;5106988;28;20031;-49
2022/04/25 04:10:30;;;;;;;6.88;4.20;;;25.80;92.10;;;;;;5106635;28;20035;-53
2022/04/25 04:12:59;;;;;;;6.75;4.30;;;25.80;92.20;;;;;;5106960;28;20212;-48
2022/04/25 04:15:26;;;;;;;7.68;3.92;;;25.80;92.30;;;;;;5107409;28;20028;-54
2022/04/25 04:17:53;;;;;;;9.00;4.03;;;25.80;92.20;;;;;;5118079;28;20047;-50
2022/04/25 04:20:19;;;;;;;9.82;3.72;;;25.80;92.20;;;;;;5127607;28;20197;-48
2022/04/25 04:22:46;;;;;;;6.82;3.65;;;25.80;92.20;;;;;;5110061;28;20063;-51
2022/04/25 04:25:13;;;;;;;7.47;3.50;;;25.80;92.20;;;;;;5119128;28;20055;-48
2022/04/25 04:27:41;;;;;;;6.47;3.92;;;25.80;92.30;;;;;;5098831;28;20023;-48
2022/04/25 04:30:10;;;;;;;11.07;4.18;;;25.80;92.10;;;;;;5086835;28;20029;-50
2022/04/25 04:32:40;;;;;;;9.52;4.57;;;25.80;92.10;;;;;;5088065;28;20247;-47
2022/04/25 04:35:12;;;;;;;9.25;4.10;;;25.80;92.10;;;;;;5127363;28;20246;-52
2022/04/25 04:37:39;;;;;;;7.30;3.90;;;25.80;92.20;;;;;;5126896;28;20019;-56
2022/04/25 04:40:28;;;;;;;6.53;3.60;;;25.80;92.20;;;;;;5126889;28;20103;-52
2022/04/25 04:42:56;;;;;;;5.18;3.45;;;25.80;92.20;;;;;;5126378;28;20031;-55
2022/04/25 04:45:23;;;;;;;8.10;3.00;;;25.80;92.10;;;;;;5127328;28;20084;-51
2022/04/25 04:47:50;;;;;;;6.13;3.63;;;25.80;92.10;;;;;;5126788;28;20024;-49
2022/04/25 04:50:17;;;;;;;6.25;3.33;;;25.80;92.10;;;;;;5127007;28;20094;-52
2022/04/25 04:52:45;;;;;;;12.60;3.47;;;25.80;92.00;;;;;;5126664;28;20327;-54
2022/04/25 04:55:12;;;;;;;6.97;3.53;;;25.80;92.20;;;;;;5126623;28;20216;-50
2022/04/25 04:57:40;;;;;;;6.57;3.60;;;25.80;92.10;;;;;;5126366;28;20229;-47
2022/04/25 05:00:16;;;;;;;7.40;3.63;;;25.80;92.10;;;;;;5126771;28;20085;-54
2022/04/25 05:02:45;;;;;;;5.28;3.13;;;25.80;92.10;;;;;;5126550;28;20024;-50
2022/04/25 05:05:12;;;;;;;10.60;3.60;;;25.80;92.00;;;;;;5126709;28;20293;-50
2022/04/25 05:07:39;;;;;;;8.05;3.80;;;25.80;92.20;;;;;;5126285;28;20212;-51
2022/04/25 05:10:09;;;;;;;6.35;3.42;;;25.80;92.10;;;;;;5126316;28;20015;-53
2022/04/25 05:12:49;;;;;;;7.32;3.60;;;25.80;92.00;;;;;;5126176;28;20023;-55
2022/04/25 05:15:17;;;;;;;4.97;3.42;;;25.80;92.20;;;;;;5126648;28;20335;-55
2022/04/25 05:17:44;;;;;;;7.05;3.90;;;25.80;92.10;;;;;;5125998;28;20059;-57
2022/04/25 05:20:14;;;;;;;7.88;4.05;;;25.80;92.10;;;;;;5126571;28;20031;-55
2022/04/25 05:22:44;;;;;;;10.38;4.13;;;25.80;92.10;;;;;;5125446;28;20015;-54
2022/04/25 05:25:16;;;;;;;7.28;3.67;;;25.80;92.10;;;;;;5126028;28;20224;-51
2022/04/25 05:27:49;;;;;;;10.07;4.20;;;25.80;92.00;;;;;;5126252;28;20243;-48
2022/04/25 05:30:16;;;;;;;;;;;25.80;92.00;;;;;;5126711;28;20028;-56
2022/04/25 05:32:47;;;;;;;9.02;4.68;;;25.80;92.10;;;;;;5125935;28;20116;-49
2022/04/25 05:35:15;;;;;;;12.38;5.10;;;25.80;92.10;;;;;;5126391;28;20293;-51
2022/04/25 05:37:43;;;;;;;7.95;4.70;;;25.80;92.10;;;;;;5125644;28;20027;-57
2022/04/25 05:40:11;;;;;;;9.93;5.45;;;25.80;92.10;;;;;;5126179;28;20027;-49
2022/04/25 05:42:40;;;;;;;9.95;5.00;;;25.80;92.10;;;;;;5125717;28;20087;-49
2022/04/25 05:45:08;;;;;;;7.57;4.70;;;25.80;92.40;;;;;;5125894;28;20031;-52
2022/04/25 05:47:36;;;;;;;9.25;5.75;;;25.80;92.30;;;;;;5125827;28;20011;-52
2022/04/25 05:52:49;;;;;;;10.50;5.60;;;25.80;92.60;;;;;;5125653;28;20255;-51
2022/04/25 05:55:15;;;;;;;13.27;6.03;;;25.70;92.50;;;;;;5125783;28;20035;-55
2022/04/25 05:57:43;;;;;;;12.30;6.03;;;25.80;92.30;;;;;;5125132;28;20039;-50
2022/04/25 06:00:11;;;;;;;8.07;5.50;;;25.70;92.30;;;;;;5125693;28;20027;-55
2022/04/25 06:02:42;;;;;;;8.10;6.10;;;25.80;92.40;;;;;;5125574;28;20015;-50
2022/04/25 06:05:12;;;;;;;9.82;5.63;;;25.70;92.50;;;;;;5125675;28;20042;-51
2022/04/25 06:07:45;;;;;;;10.32;6.20;;;25.70;92.60;;;;;;5125515;28;20011;-49
2022/04/25 06:10:17;;;;;;;11.43;6.68;;;25.70;92.60;;;;;;5125607;28;20032;-49
2022/04/25 06:12:50;;;;;;;12.52;6.40;;;25.70;92.70;;;;;;5124406;28;20121;-50
2022/04/25 06:15:24;;;;;;;10.18;6.78;;;25.70;92.70;;;;;;5125495;28;20038;-50
2022/04/25 06:17:55;;;;;;;10.70;7.05;;;25.60;92.50;;;;;;5124767;28;20185;-48
2022/04/25 06:20:22;;;;;;;8.85;6.72;;;25.70;92.70;;;;;;5125459;28;20027;-49
2022/04/25 06:22:59;;;;;;;9.27;7.35;;;25.70;92.80;;;;;;5109727;28;20012;-51
2022/04/25 06:25:27;;;;;;;9.25;7.00;;;25.60;92.60;;;;;;5100465;28;20275;-53
2022/04/25 06:27:57;;;;;;;9.55;7.35;;;25.60;92.70;;;;;;5088308;28;20028;-57
2022/04/25 06:30:28;;;;;;;9.77;6.95;;;25.60;92.80;;;;;;5084503;28;20043;-58
2022/04/25 06:32:55;;;;;;;12.98;7.63;;;25.60;92.80;;;;;;5084017;28;20021;-52
2022/04/25 06:35:21;;;;;;;13.77;8.70;;;25.70;93.00;;;;;;5084539;28;20201;-53
2022/04/25 06:37:49;;;;;;;11.30;9.07;;;25.60;93.10;;;;;;5083930;28;20040;-49
2022/04/25 06:40:16;;;;;;;11.40;8.77;;;25.50;93.20;;;;;;5084575;28;20033;-53
2022/04/25 06:42:42;;;;;;;14.05;9.38;;;25.50;93.30;;;;;;5084089;28;20020;-56
2022/04/25 06:45:09;;;;;;;18.95;10.00;;;25.50;93.10;;;;;;5084371;28;20312;-49
2022/04/25 06:47:36;;;;;;;14.98;10.98;;;25.50;93.10;;;;;;5083909;28;20047;-57
2022/04/25 06:50:03;;;;;;;15.07;10.23;;;25.50;93.40;;;;;;5084400;28;20028;-56
2022/04/25 06:52:30;;;;;;;13.45;10.52;;;25.40;93.50;;;;;;5083856;28;20020;-54
2022/04/25 06:54:57;;;;;;;15.73;10.30;;;25.30;93.70;;;;;;5084227;28;20029;-48
2022/04/25 06:57:24;;;;;;;12.32;10.57;;;25.30;94.00;;;;;;5083639;28;20288;-52
2022/04/25 06:59:50;;;;;;;13.55;10.30;;;25.30;93.90;;;;;;5084051;28;20211;-50
2022/04/25 07:02:17;;;;;;;16.25;10.77;;;25.30;93.90;;;;;;5083741;28;20321;-51
2022/04/25 07:04:45;;;;;;;14.23;11.00;;;25.20;94.00;;;;;;5084190;28;20323;-51
2022/04/25 07:07:12;;;;;;;15.68;10.77;;;25.20;94.20;;;;;;5083651;28;20024;-48
2022/04/25 07:09:38;;;;;;;14.35;10.90;;;25.20;94.20;;;;;;5084010;28;20032;-52
2022/04/25 07:12:05;;;;;;;16.55;11.75;;;25.20;94.20;;;;;;5083779;28;20264;-50
2022/04/25 07:14:33;;;;;;;13.73;11.50;;;25.30;94.10;;;;;;5083948;28;20020;-55
2022/04/25 07:17:02;;;;;;;14.32;11.13;;;25.30;94.00;;;;;;5083954;28;20025;-54
2022/04/25 07:19:29;;;;;;;12.80;11.38;;;25.30;94.10;;;;;;5083809;28;20101;-50
2022/04/25 07:30:10;;;;;;;16.08;13.80;;;25.30;94.40;;;;;;5088139;28;20112;-56
2022/04/25 07:32:39;;;;;;;17.08;12.70;;;25.30;94.50;;;;;;5087391;28;20313;-55
2022/04/25 07:35:07;;;;;;;20.08;12.75;;;25.30;94.60;;;;;;5087862;28;20058;-53
2022/04/25 07:37:34;;;;;;;17.17;12.90;;;25.30;94.60;;;;;;5087448;28;20075;-50
2022/04/25 07:40:02;;;;;;;17.92;12.27;;;25.30;94.70;;;;;;5087656;28;20032;-54
2022/04/25 07:42:31;;;;;;;12.00;10.90;;;25.30;94.60;;;;;;5087245;28;20020;-54
2022/04/25 07:44:58;;;;;;;13.80;10.82;;;25.30;94.60;;;;;;5087636;28;20028;-53
2022/04/25 07:47:25;;;;;;;14.18;10.95;;;25.30;94.60;;;;;;5087182;28;20020;-50
2022/04/25 07:49:52;;;;;;;13.98;10.48;;;25.30;94.70;;;;;;5087537;28;20060;-54
2022/04/25 07:52:18;;;;;;;11.18;9.90;;;25.30;94.70;;;;;;5087080;28;20023;-52
2022/04/25 07:54:45;;;;;;;12.82;10.77;;;25.30;94.90;;;;;;5091004;28;20062;-48
2022/04/25 07:57:11;;;;;;;12.13;10.70;;;25.30;94.70;;;;;;5124765;28;20078;-48
2022/04/25 07:59:38;;;;;;;11.57;10.40;;;25.30;94.90;;;;;;5127932;28;20038;-49
2022/04/25 08:02:05;;;;;;;11.93;10.43;;;25.30;94.90;;;;;;5127607;28;20196;-55
2022/04/25 08:04:31;;;;;;;13.60;10.13;;;25.30;95.00;;;;;;5127940;28;20085;-54
2022/04/25 08:06:58;;;;;;;14.30;11.20;;;25.30;95.00;;;;;;5127567;28;20309;-49
2022/04/25 08:09:24;;;;;;;14.82;10.73;;;25.30;95.00;;;;;;5127747;28;20178;-57
2022/04/25 08:17:56;;;;;;;11.88;10.18;;;25.30;95.10;;;;;;5127608;28;20073;-49
2022/04/25 08:20:08;;;;;;;11.25;10.10;;;25.20;95.40;;;;;;5127837;28;20042;-56
2022/04/25 08:22:34;;;;;;;11.88;10.05;;;25.30;95.30;;;;;;5127269;28;20034;-53
2022/04/25 08:25:03;;;;;;;11.82;10.55;;;25.30;95.30;;;;;;5127510;28;20051;-51
2022/04/25 08:27:30;;;;;;;11.80;10.70;;;25.30;95.50;;;;;;5127112;28;20049;-49
2022/04/25 08:29:58;;;;;;;17.40;11.00;;;25.30;95.40;;;;;;5127475;28;20032;-48
2022/04/25 08:32:25;;;;;;;13.52;10.15;;;25.30;95.40;;;;;;5126917;28;20027;-48
2022/04/25 08:34:51;;;;;;;11.27;9.52;;;25.30;95.50;;;;;;5126630;28;20050;-49
2022/04/25 08:37:18;;;;;;;10.88;9.73;;;25.30;95.40;;;;;;5126924;28;20027;-55
2022/04/25 08:39:45;;;;;;;10.57;9.45;;;25.30;95.40;;;;;;5126683;28;20318;-48
2022/04/25 08:42:11;;;;;;;11.75;10.45;;;25.40;95.40;;;;;;5126786;28;20083;-51
2022/04/25 08:44:39;;;;;;;12.25;10.02;;;25.40;95.50;;;;;;5127269;28;20020;-55
2022/04/25 08:47:08;;;;;;;12.38;9.07;;;25.30;95.60;;;;;;5126781;28;20031;-49
2022/04/25 08:49:36;;;;;;;11.05;9.25;;;25.30;95.50;;;;;;5127103;28;20091;-49
2022/04/25 08:52:04;;;;;;;12.35;9.77;;;25.30;95.60;;;;;;5126751;28;20027;-48
2022/04/25 08:54:32;;;;;;;11.45;9.18;;;25.30;95.60;;;;;;5126718;28;20228;-50
2022/04/25 08:57:02;;;;;;;10.15;9.02;;;25.30;95.60;;;;;;5126544;28;20044;-47
2022/04/25 08:59:31;;;;;;;11.88;8.73;;;25.30;95.60;;;;;;5126870;28;20051;-51
2022/04/25 09:01:58;;;;;;;9.73;8.82;;;25.30;95.60;;;;;;5126528;28;20093;-54
2022/04/25 09:04:25;;;;;;;10.35;9.45;;;25.30;95.60;;;;;;5126897;28;20300;-51
2022/04/25 09:06:51;;;;;;;9.95;8.10;;;25.30;95.70;;;;;;5126626;28;20301;-61
2022/04/25 09:09:18;;;;;;;9.98;8.43;;;25.40;95.70;;;;;;5126622;28;20035;-49
2022/04/25 09:14:32;;;;;;;10.20;8.55;;;25.40;95.60;;;;;;5126534;28;20066;-51
2022/04/25 09:17:03;;;;;;;11.35;9.18;;;25.40;95.60;;;;;;5126267;28;20032;-50
2022/04/25 09:19:34;;;;;;;9.98;8.90;;;25.40;95.70;;;;;;5126354;28;20032;-54
2022/04/25 09:22:00;;;;;;;12.18;9.55;;;25.40;95.60;;;;;;5125923;28;20027;-55
2022/04/25 09:24:29;;;;;;;10.23;9.18;;;25.40;95.80;;;;;;5126588;28;20235;-50
2022/04/25 09:27:08;;;;;;;9.23;7.95;;;25.30;95.90;;;;;;5126069;28;20024;-50
2022/04/25 09:29:36;;;;;;;8.73;7.57;;;25.30;96.00;;;;;;5126284;28;20036;-52
2022/04/25 09:32:04;;;;;;;8.32;7.47;;;25.30;95.90;;;;;;5125950;28;20328;-53
2022/04/25 09:37:20;;;;;;;9.27;8.38;;;25.40;95.80;;;;;;5125863;28;20137;-54
2022/04/25 09:40:06;;;;;;;9.85;8.02;;;25.30;95.70;;;;;;5125999;28;20036;-55
2022/04/25 09:42:33;;;;;;;9.38;8.40;;;25.30;95.70;;;;;;5125834;28;20316;-54
2022/04/25 09:45:01;;;;;;;12.43;8.73;;;25.30;95.80;;;;;;5125980;28;20300;-50
2022/04/25 09:47:33;;;;;;;12.30;8.90;;;25.30;95.80;;;;;;5124541;28;20086;-51
2022/04/25 09:50:02;;;;;;;11.13;9.88;;;25.30;95.80;;;;;;5125950;28;20073;-51
2022/04/25 09:52:31;;;;;;;11.73;10.63;;;25.20;95.90;;;;;;5125277;28;20041;-53
2022/04/25 09:55:14;;;;;;;12.57;9.70;;;25.20;95.90;;;;;;5125890;28;20079;-51
2022/04/25 09:57:42;;;;;;;12.23;10.65;;;25.10;95.80;;;;;;5125129;28;20044;-51
2022/04/25 10:00:09;;;;;;;10.18;9.32;;;25.10;96.10;;;;;;5125685;28;20050;-49
2022/04/25 10:02:41;;;;;;;11.40;10.13;;;25.20;95.90;;;;;;5125334;28;20047;-55
2022/04/25 10:05:15;;;;;;;11.53;10.23;;;25.20;95.90;;;;;;5125615;28;20053;-54
2022/04/25 10:07:44;;;;;;;11.80;10.60;;;25.20;95.70;;;;;;5125199;28;20020;-57
2022/04/25 10:10:12;;;;;;;12.15;10.90;;;25.30;95.60;;;;;;5125722;28;20106;-50
2022/04/25 10:12:39;;;;;;;12.98;10.93;;;25.20;95.60;;;;;;5125090;28;20315;-53
2022/04/25 10:15:07;;;;;;;11.20;10.10;;;25.30;95.60;;;;;;5125640;28;20020;-51
2022/04/25 10:17:40;;;;;;;13.00;11.20;;;25.30;95.60;;;;;;5125098;28;20063;-50
2022/04/25 10:20:09;;;;;;;11.90;10.80;;;25.30;95.50;;;;;;5125508;28;20025;-47
2022/04/25 10:22:36;;;;;;;12.75;11.38;;;25.30;95.50;;;;;;5123011;28;20030;-49
2022/04/25 10:25:04;;;;;;;13.10;11.70;;;25.30;95.60;;;;;;5125299;28;20015;-51
2022/04/25 10:27:34;;;;;;;12.77;11.02;;;25.30;95.60;;;;;;5124839;28;20020;-59
2022/04/25 10:30:09;;;;;;;13.70;12.32;;;25.30;95.60;;;;;;5125606;28;20035;-57
2022/04/25 10:32:36;;;;;;;15.23;11.55;;;25.40;95.50;;;;;;5106536;28;20065;-50
2022/04/25 10:35:05;;;;;;;13.85;12.38;;;25.40;95.60;;;;;;5125067;28;20031;-48
2022/04/25 10:37:33;;;;;;;16.92;12.20;;;25.30;95.70;;;;;;5124454;28;20362;-52
2022/04/25 10:40:01;;;;;;;16.63;12.38;;;25.30;95.60;;;;;;5124842;28;20035;-55
2022/04/25 10:45:13;;;;;;;16.50;12.07;;;25.30;95.70;;;;;;5124774;28;20360;-54
2022/04/25 10:48:08;;;;;;;14.32;11.45;;;25.30;95.60;;;;;;5124429;28;20046;-49
2022/04/25 10:51:16;;;;;;;14.68;11.52;;;25.30;95.50;;;;;;5124733;28;20027;-55
2022/04/25 10:54:02;;;;;;;16.63;13.02;;;25.30;95.50;;;;;;5124447;28;20039;-49
2022/04/25 10:56:30;;;;;;;13.48;12.18;;;25.30;95.40;;;;;;5124203;28;20370;-51
2022/04/25 10:59:23;;;;;;;14.27;11.90;;;25.30;95.70;;;;;;5124030;28;20035;-51
2022/04/25 11:01:50;;;;;;;14.02;12.43;;;25.30;95.50;;;;;;5124214;28;20020;-52
2022/04/25 11:04:18;;;;;;;16.30;11.98;;;25.30;95.50;;;;;;5124770;28;20141;-49
2022/04/25 11:06:45;;;;;;;16.48;12.32;;;25.30;95.60;;;;;;5124481;28;20188;-49
2022/04/25 11:09:41;;;;;;;15.52;12.82;;;25.30;95.50;;;;;;5123977;28;20050;-51
2022/04/25 11:12:08;;;;;;;15.80;12.27;;;25.30;95.50;;;;;;5124219;28;20042;-55
2022/04/25 11:14:35;;;;;;;14.65;12.25;;;25.30;95.50;;;;;;5124491;28;20039;-53
2022/04/25 11:17:15;;;;;;;15.68;12.85;;;25.30;95.50;;;;;;5124309;28;20085;-57
2022/04/25 11:19:54;;;;;;;17.55;13.07;;;25.30;95.50;;;;;;5124587;28;20243;-50
2022/04/25 11:22:39;;;;;;;16.08;12.45;;;25.20;95.60;;;;;;5124228;28;20273;-53
2022/04/25 11:25:27;;;;;;;21.55;13.00;;;25.20;95.70;;;;;;5124375;28;20095;-51
2022/04/25 11:28:13;;;;;;;17.20;12.75;;;25.30;95.60;;;;;;5124263;28;20028;-55
2022/04/25 11:30:41;;;;;;;24.08;18.20;;;25.20;95.60;;;;;;5124268;28;20027;-54
2022/04/25 11:33:09;;;;;;;22.90;19.13;;;25.20;95.70;;;;;;5124112;28;20037;-57
2022/04/25 11:35:39;;;;;;;25.33;16.20;;;25.30;95.80;;;;;;5104964;28;20029;-55
2022/04/25 11:38:06;;;;;;;25.20;16.60;;;25.20;95.70;;;;;;5123941;28;20020;-56
2022/04/25 11:40:33;;;;;;;186.10;26.38;;;25.10;95.80;;;;;;5124050;28;20335;-55
2022/04/25 11:43:03;;;;;;;96.13;21.17;;;25.00;96.10;;;;;;5124028;28;20208;-51
2022/04/25 11:45:31;;;;;;;58.80;19.38;;;25.00;96.20;;;;;;5123908;28;20332;-53
2022/04/25 11:47:59;;;;;;;40.03;20.05;;;24.90;96.20;;;;;;5122008;28;20083;-45
2022/04/25 11:50:26;;;;;;;39.33;19.30;;;24.90;96.30;;;;;;5124127;28;20088;-48
2022/04/25 11:52:56;;;;;;;82.72;18.35;;;24.90;96.50;;;;;;5123913;28;20312;-50
2022/04/25 11:55:34;;;;;;;47.20;16.60;;;24.90;96.50;;;;;;5124340;28;20043;-48
2022/04/25 11:58:04;;;;;;;40.72;16.52;;;24.90;96.30;;;;;;5124141;28;20298;-50
2022/04/25 12:00:30;;;;;;;28.88;16.25;;;25.00;96.30;;;;;;5123772;28;20255;-49
2022/04/25 12:02:57;;;;;;;38.67;16.08;;;25.00;96.20;;;;;;5123709;28;20034;-49
2022/04/25 12:05:30;;;;;;;30.02;16.40;;;25.00;96.20;;;;;;5124284;28;20027;-48
2022/04/25 12:16:14;;;;;;;18.33;13.93;;;25.00;96.20;;;;;;5127595;28;20057;-52
2022/04/25 12:18:51;;;;;;;18.92;15.07;;;25.10;96.30;;;;;;5127319;28;20036;-49
2022/04/25 12:21:19;;;;;;;19.20;14.15;;;25.10;96.20;;;;;;5127376;28;20046;-48
2022/04/25 12:23:52;;;;;;;21.98;14.90;;;25.10;96.20;;;;;;5125917;28;20028;-57
2022/04/25 12:26:20;;;;;;;17.45;12.85;;;25.10;96.20;;;;;;5106379;28;20018;-49
2022/04/25 12:28:52;;;;;;;15.48;13.48;;;25.10;96.20;;;;;;5127502;28;20105;-57
2022/04/25 12:31:19;;;;;;;17.05;12.55;;;25.10;96.20;;;;;;5126973;28;20019;-56
2022/04/25 12:33:50;;;;;;;14.65;12.23;;;25.10;96.10;;;;;;5127431;28;20122;-54
2022/04/25 12:36:24;;;;;;;12.48;10.88;;;25.10;96.10;;;;;;5127132;28;20320;-54
2022/04/25 12:38:54;;;;;;;13.52;11.02;;;25.10;96.00;;;;;;5126964;28;20031;-49
2022/04/25 12:41:26;;;;;;;10.85;9.68;;;25.20;95.90;;;;;;5127180;28;20028;-49
2022/04/25 12:43:54;;;;;;;12.20;9.93;;;25.20;95.80;;;;;;5127058;28;20096;-49
2022/04/25 12:46:42;;;;;;;11.88;9.32;;;25.20;95.80;;;;;;5126799;28;20356;-52
2022/04/25 12:49:13;;;;;;;13.57;8.88;;;25.20;95.80;;;;;;5126877;28;20212;-49
2022/04/25 12:51:41;;;;;;;12.00;8.90;;;25.20;95.80;;;;;;5126782;28;20043;-46
2022/04/25 12:54:23;;;;;;;11.60;8.65;;;25.10;95.80;;;;;;5126834;28;20095;-51
2022/04/25 12:56:55;;;;;;;9.85;8.52;;;25.10;95.80;;;;;;5126492;28;20533;-51
2022/04/25 12:59:27;;;;;;;10.50;8.48;;;25.10;95.80;;;;;;5126665;28;20065;-47
2022/04/25 13:02:04;;;;;;;9.98;8.98;;;25.10;95.80;;;;;;5126378;28;20077;-48
2022/04/25 13:04:31;;;;;;;9.85;8.13;;;25.10;95.80;;;;;;5126872;28;20204;-49
2022/04/25 13:06:57;;;;;;;9.27;8.23;;;25.10;95.80;;;;;;5126355;28;20027;-50
2022/04/25 13:09:24;;;;;;;8.68;7.85;;;25.10;95.80;;;;;;5126541;28;20065;-52
2022/04/25 13:11:51;;;;;;;9.85;8.82;;;25.10;95.80;;;;;;5126412;28;20042;-47
2022/04/25 13:14:17;;;;;;;9.30;8.30;;;25.10;95.80;;;;;;5126644;28;20046;-48
2022/04/25 13:16:44;;;;;;;8.73;7.93;;;25.10;95.80;;;;;;5126399;28;20039;-45
2022/04/25 13:19:11;;;;;;;9.43;8.52;;;25.10;95.90;;;;;;5126444;28;20015;-51
2022/04/25 13:21:41;;;;;;;9.68;8.73;;;25.10;95.90;;;;;;5126062;28;20020;-50
2022/04/25 13:24:07;;;;;;;11.85;8.23;;;25.10;96.00;;;;;;5126127;28;20027;-47
2022/04/25 13:26:34;;;;;;;10.13;9.05;;;25.10;96.10;;;;;;5126142;28;20019;-48